sensor_id;sensor_type;location;lat;lon;timestamp;temperature;humidity
19516;DHT22;9901;47.448;7.692;2023-02-12T00:01:08;1.50;99.90
19516;DHT22;9901;47.448;7.692;2023-02-12T00:03:37;1.50;99.90
19516;DHT22;9901;47.448;7.692;2023-02-12T00:06:07;1.40;99.90
19516;DHT22;9901;47.448;7.692;2023-02-12T00:08:33;1.40;99.90
19516;DHT22;9901;47.448;7.692;2023-02-12T00:10:58;1.30;99.90
19516;DHT22;9901;47.448;7.692;2023-02-12T00:13:24;1.30;99.90
19516;DHT22;9901;47.448;7.692;2023-02-12T00:15:50;1.30;99.90
19516;DHT22;9901;47.448;7.692;2023-02-12T00:18:15;1.30;99.90
19516;DHT22;9901;47.448;7.692;2023-02-12T00:20:41;1.40;99.90
19516;DHT22;9901;47.448;7.692;2023-02-12T00:23:07;1.20;99.90
19516;DHT22;9901;47.448;7.692;2023-02-12T00:25:56;1.10;99.90
19516;DHT22;9901;47.448;7.692;2023-02-12T00:28:22;1.10;99.90
19516;DHT22;9901;47.448;7.692;2023-02-12T00:30:48;1.00;99.90
19516;DHT22;9901;47.448;7.692;2023-02-12T00:33:13;1.00;99.90
19516;DHT22;9901;47.448;7.692;2023-02-12T00:35:39;1.00;99.90
19516;DHT22;9901;47.448;7.692;2023-02-12T00:38:07;1.00;99.90
19516;DHT22;9901;47.448;7.692;2023-02-12T00:40:33;1.00;99.90
19516;DHT22;9901;47.448;7.692;2023-02-12T00:42:58;0.90;99.90
19516;DHT22;9901;47.448;7.692;2023-02-12T00:45:24;0.90;99.90
19516;DHT22;9901;47.448;7.692;2023-02-12T00:47:49;0.90;99.90
19516;DHT22;9901;47.448;7.692;2023-02-12T00:50:15;0.90;99.90
19516;DHT22;9901;47.448;7.692;2023-02-12T00:52:43;0.90;99.90
19516;DHT22;9901;47.448;7.692;2023-02-12T00:55:09;0.90;99.90
19516;DHT22;9901;47.448;7.692;2023-02-12T00:57:34;0.90;99.90
19516;DHT22;9901;47.448;7.692;2023-02-12T01:00:00;0.90;99.90
19516;DHT22;9901;47.448;7.692;2023-02-12T01:02:26;0.90;99.90
19516;DHT22;9901;47.448;7.692;2023-02-12T01:04:51;0.90;99.90
19516;DHT22;9901;47.448;7.692;2023-02-12T01:07:17;0.90;99.90
19516;DHT22;9901;47.448;7.692;2023-02-12T01:09:42;0.90;99.90
19516;DHT22;9901;47.448;7.692;2023-02-12T01:12:08;0.90;99.90
19516;DHT22;9901;47.448;7.692;2023-02-12T01:14:34;0.90;99.90
19516;DHT22;9901;47.448;7.692;2023-02-12T01:16:59;0.80;99.90
19516;DHT22;9901;47.448;7.692;2023-02-12T01:19:25;0.90;99.90
19516;DHT22;9901;47.448;7.692;2023-02-12T01:21:52;0.90;99.90
19516;DHT22;9901;47.448;7.692;2023-02-12T01:24:17;0.90;99.90
19516;DHT22;9901;47.448;7.692;2023-02-12T01:26:43;0.90;99.90
19516;DHT22;9901;47.448;7.692;2023-02-12T01:29:14;0.90;99.90
19516;DHT22;9901;47.448;7.692;2023-02-12T01:31:39;0.80;99.90
19516;DHT22;9901;47.448;7.692;2023-02-12T01:34:08;0.80;99.90
19516;DHT22;9901;47.448;7.692;2023-02-12T01:36:35;0.90;99.90
19516;DHT22;9901;47.448;7.692;2023-02-12T01:39:01;0.80;99.90
19516;DHT22;9901;47.448;7.692;2023-02-12T01:41:32;0.80;99.90
19516;DHT22;9901;47.448;7.692;2023-02-12T01:44:19;0.80;99.90
19516;DHT22;9901;47.448;7.692;2023-02-12T01:46:59;0.70;99.90
19516;DHT22;9901;47.448;7.692;2023-02-12T01:49:39;0.70;99.90
19516;DHT22;9901;47.448;7.692;2023-02-12T01:54:50;0.60;99.90
19516;DHT22;9901;47.448;7.692;2023-02-12T01:57:17;0.70;99.90
19516;DHT22;9901;47.448;7.692;2023-02-12T01:59:46;0.80;99.90
19516;DHT22;9901;47.448;7.692;2023-02-12T02:02:13;0.80;99.90
19516;DHT22;9901;47.448;7.692;2023-02-12T02:04:50;0.80;99.90
19516;DHT22;9901;47.448;7.692;2023-02-12T02:07:20;0.80;99.90
19516;DHT22;9901;47.448;7.692;2023-02-12T02:09:49;0.80;99.90
19516;DHT22;9901;47.448;7.692;2023-02-12T02:12:15;0.90;99.90
19516;DHT22;9901;47.448;7.692;2023-02-12T02:15:03;0.70;99.90
19516;DHT22;9901;47.448;7.692;2023-02-12T02:20:48;0.70;99.90
19516;DHT22;9901;47.448;7.692;2023-02-12T02:23:29;0.70;99.90
19516;DHT22;9901;47.448;7.692;2023-02-12T02:32:23;0.70;99.90
19516;DHT22;9901;47.448;7.692;2023-02-12T02:34:54;0.70;99.90
19516;DHT22;9901;47.448;7.692;2023-02-12T02:37:37;0.70;99.90
19516;DHT22;9901;47.448;7.692;2023-02-12T02:40:19;0.70;99.90
19516;DHT22;9901;47.448;7.692;2023-02-12T02:42:52;0.70;99.90
19516;DHT22;9901;47.448;7.692;2023-02-12T02:48:11;0.70;99.90
19516;DHT22;9901;47.448;7.692;2023-02-12T02:50:40;0.70;99.90
19516;DHT22;9901;47.448;7.692;2023-02-12T02:53:11;0.70;99.90
19516;DHT22;9901;47.448;7.692;2023-02-12T02:55:40;0.70;99.90
19516;DHT22;9901;47.448;7.692;2023-02-12T02:58:18;0.70;99.90
19516;DHT22;9901;47.448;7.692;2023-02-12T03:00:50;0.60;99.90
19516;DHT22;9901;47.448;7.692;2023-02-12T03:03:35;0.60;99.90
19516;DHT22;9901;47.448;7.692;2023-02-12T03:06:12;0.70;99.90
19516;DHT22;9901;47.448;7.692;2023-02-12T03:08:46;0.70;99.90
19516;DHT22;9901;47.448;7.692;2023-02-12T03:11:22;0.70;99.90
19516;DHT22;9901;47.448;7.692;2023-02-12T03:14:03;0.70;99.90
19516;DHT22;9901;47.448;7.692;2023-02-12T03:16:34;0.80;99.90
19516;DHT22;9901;47.448;7.692;2023-02-12T03:19:11;0.80;99.90
19516;DHT22;9901;47.448;7.692;2023-02-12T03:21:43;0.80;99.90
19516;DHT22;9901;47.448;7.692;2023-02-12T03:26:45;0.80;99.90
19516;DHT22;9901;47.448;7.692;2023-02-12T03:29:15;0.70;99.90
19516;DHT22;9901;47.448;7.692;2023-02-12T03:34:49;0.70;99.90
19516;DHT22;9901;47.448;7.692;2023-02-12T03:37:38;0.70;99.90
19516;DHT22;9901;47.448;7.692;2023-02-12T03:40:16;0.80;99.90
19516;DHT22;9901;47.448;7.692;2023-02-12T03:45:40;0.70;99.90
19516;DHT22;9901;47.448;7.692;2023-02-12T03:51:19;0.70;99.90
19516;DHT22;9901;47.448;7.692;2023-02-12T03:53:47;0.70;99.90
19516;DHT22;9901;47.448;7.692;2023-02-12T03:56:24;0.70;99.90
19516;DHT22;9901;47.448;7.692;2023-02-12T03:58:51;0.70;99.90
19516;DHT22;9901;47.448;7.692;2023-02-12T04:01:17;0.70;99.90
19516;DHT22;9901;47.448;7.692;2023-02-12T04:03:42;0.70;99.90
19516;DHT22;9901;47.448;7.692;2023-02-12T04:06:23;0.70;99.90
19516;DHT22;9901;47.448;7.692;2023-02-12T04:08:51;0.70;99.90
19516;DHT22;9901;47.448;7.692;2023-02-12T04:11:19;0.70;99.90
19516;DHT22;9901;47.448;7.692;2023-02-12T04:16:44;0.70;99.90
19516;DHT22;9901;47.448;7.692;2023-02-12T04:19:19;0.70;99.90
19516;DHT22;9901;47.448;7.692;2023-02-12T04:25:05;0.70;99.90
19516;DHT22;9901;47.448;7.692;2023-02-12T04:27:48;0.70;99.90
19516;DHT22;9901;47.448;7.692;2023-02-12T04:30:21;0.70;99.90
19516;DHT22;9901;47.448;7.692;2023-02-12T04:32:56;0.70;99.90
19516;DHT22;9901;47.448;7.692;2023-02-12T04:35:40;0.70;99.90
19516;DHT22;9901;47.448;7.692;2023-02-12T04:38:21;0.70;99.90
19516;DHT22;9901;47.448;7.692;2023-02-12T04:40:48;0.70;99.90
19516;DHT22;9901;47.448;7.692;2023-02-12T04:43:14;0.70;99.90
19516;DHT22;9901;47.448;7.692;2023-02-12T04:45:49;0.60;99.90
19516;DHT22;9901;47.448;7.692;2023-02-12T04:48:15;0.80;99.90
19516;DHT22;9901;47.448;7.692;2023-02-12T04:50:48;0.70;99.90
19516;DHT22;9901;47.448;7.692;2023-02-12T04:53:15;0.70;99.90
19516;DHT22;9901;47.448;7.692;2023-02-12T04:55:41;0.70;99.90
19516;DHT22;9901;47.448;7.692;2023-02-12T04:58:09;0.70;99.90
19516;DHT22;9901;47.448;7.692;2023-02-12T05:00:35;0.70;99.90
19516;DHT22;9901;47.448;7.692;2023-02-12T05:03:07;0.70;99.90
19516;DHT22;9901;47.448;7.692;2023-02-12T05:05:33;0.80;99.90
19516;DHT22;9901;47.448;7.692;2023-02-12T05:07:59;0.80;99.90
19516;DHT22;9901;47.448;7.692;2023-02-12T05:10:25;0.70;99.90
19516;DHT22;9901;47.448;7.692;2023-02-12T05:12:59;0.70;99.90
19516;DHT22;9901;47.448;7.692;2023-02-12T05:15:25;0.70;99.90
19516;DHT22;9901;47.448;7.692;2023-02-12T05:17:51;0.60;99.90
19516;DHT22;9901;47.448;7.692;2023-02-12T05:20:16;0.70;99.90
19516;DHT22;9901;47.448;7.692;2023-02-12T05:22:42;0.70;99.90
19516;DHT22;9901;47.448;7.692;2023-02-12T05:25:07;0.70;99.90
19516;DHT22;9901;47.448;7.692;2023-02-12T05:27:33;0.80;99.90
19516;DHT22;9901;47.448;7.692;2023-02-12T05:29:59;0.80;99.90
19516;DHT22;9901;47.448;7.692;2023-02-12T05:32:24;0.90;99.90
19516;DHT22;9901;47.448;7.692;2023-02-12T05:34:50;1.00;99.90
19516;DHT22;9901;47.448;7.692;2023-02-12T05:37:15;1.00;99.90
19516;DHT22;9901;47.448;7.692;2023-02-12T05:39:41;1.10;99.90
19516;DHT22;9901;47.448;7.692;2023-02-12T05:42:06;1.10;99.90
19516;DHT22;9901;47.448;7.692;2023-02-12T05:44:32;1.20;99.90
19516;DHT22;9901;47.448;7.692;2023-02-12T05:47:00;1.20;99.90
19516;DHT22;9901;47.448;7.692;2023-02-12T05:49:28;1.40;99.90
19516;DHT22;9901;47.448;7.692;2023-02-12T05:51:54;1.40;99.90
19516;DHT22;9901;47.448;7.692;2023-02-12T05:54:19;1.50;99.90
19516;DHT22;9901;47.448;7.692;2023-02-12T05:56:46;1.50;99.90
19516;DHT22;9901;47.448;7.692;2023-02-12T05:59:15;1.60;99.90
19516;DHT22;9901;47.448;7.692;2023-02-12T06:01:43;1.70;99.90
19516;DHT22;9901;47.448;7.692;2023-02-12T06:04:14;1.70;99.90
19516;DHT22;9901;47.448;7.692;2023-02-12T06:06:40;1.70;99.90
19516;DHT22;9901;47.448;7.692;2023-02-12T06:09:10;1.80;99.90
19516;DHT22;9901;47.448;7.692;2023-02-12T06:11:39;1.80;99.90
19516;DHT22;9901;47.448;7.692;2023-02-12T06:14:07;1.80;99.90
19516;DHT22;9901;47.448;7.692;2023-02-12T06:16:33;1.80;99.90
19516;DHT22;9901;47.448;7.692;2023-02-12T06:19:01;1.90;99.90
19516;DHT22;9901;47.448;7.692;2023-02-12T06:21:28;1.90;99.90
19516;DHT22;9901;47.448;7.692;2023-02-12T06:23:54;1.90;99.90
19516;DHT22;9901;47.448;7.692;2023-02-12T06:26:20;2.00;99.90
19516;DHT22;9901;47.448;7.692;2023-02-12T06:28:46;2.00;99.90
19516;DHT22;9901;47.448;7.692;2023-02-12T06:31:18;2.10;99.90
19516;DHT22;9901;47.448;7.692;2023-02-12T06:33:43;2.10;99.90
19516;DHT22;9901;47.448;7.692;2023-02-12T06:36:09;2.20;99.90
19516;DHT22;9901;47.448;7.692;2023-02-12T06:38:35;2.30;99.90
19516;DHT22;9901;47.448;7.692;2023-02-12T06:41:03;2.30;99.90
19516;DHT22;9901;47.448;7.692;2023-02-12T06:43:29;2.40;99.90
19516;DHT22;9901;47.448;7.692;2023-02-12T06:45:55;2.40;99.90
19516;DHT22;9901;47.448;7.692;2023-02-12T06:48:20;2.50;99.90
19516;DHT22;9901;47.448;7.692;2023-02-12T06:50:46;2.60;99.90
19516;DHT22;9901;47.448;7.692;2023-02-12T06:53:11;2.80;99.90
19516;DHT22;9901;47.448;7.692;2023-02-12T06:55:40;2.80;99.90
19516;DHT22;9901;47.448;7.692;2023-02-12T06:58:06;2.80;99.90
19516;DHT22;9901;47.448;7.692;2023-02-12T07:00:31;2.90;99.90
19516;DHT22;9901;47.448;7.692;2023-02-12T07:02:57;3.00;99.90
19516;DHT22;9901;47.448;7.692;2023-02-12T07:05:23;3.00;99.90
19516;DHT22;9901;47.448;7.692;2023-02-12T07:07:49;3.10;99.90
19516;DHT22;9901;47.448;7.692;2023-02-12T07:10:18;3.10;99.90
19516;DHT22;9901;47.448;7.692;2023-02-12T07:12:43;3.20;99.90
19516;DHT22;9901;47.448;7.692;2023-02-12T07:15:09;3.10;99.90
19516;DHT22;9901;47.448;7.692;2023-02-12T07:17:38;3.20;99.90
19516;DHT22;9901;47.448;7.692;2023-02-12T07:20:04;3.20;99.90
19516;DHT22;9901;47.448;7.692;2023-02-12T07:22:30;3.20;99.90
19516;DHT22;9901;47.448;7.692;2023-02-12T07:24:56;3.20;99.90
19516;DHT22;9901;47.448;7.692;2023-02-12T07:27:21;3.30;99.90
19516;DHT22;9901;47.448;7.692;2023-02-12T07:29:47;3.40;99.90
19516;DHT22;9901;47.448;7.692;2023-02-12T07:32:12;3.40;99.90
19516;DHT22;9901;47.448;7.692;2023-02-12T07:34:38;3.50;99.90
19516;DHT22;9901;47.448;7.692;2023-02-12T07:37:03;3.50;99.90
19516;DHT22;9901;47.448;7.692;2023-02-12T07:39:31;3.70;99.90
19516;DHT22;9901;47.448;7.692;2023-02-12T07:41:56;3.60;99.90
19516;DHT22;9901;47.448;7.692;2023-02-12T07:44:22;3.70;99.90
19516;DHT22;9901;47.448;7.692;2023-02-12T07:46:48;3.70;99.90
19516;DHT22;9901;47.448;7.692;2023-02-12T07:49:16;3.80;99.90
19516;DHT22;9901;47.448;7.692;2023-02-12T07:51:42;3.80;99.90
19516;DHT22;9901;47.448;7.692;2023-02-12T07:54:10;3.80;99.90
19516;DHT22;9901;47.448;7.692;2023-02-12T07:56:37;3.70;99.90
19516;DHT22;9901;47.448;7.692;2023-02-12T07:59:07;3.80;99.90
19516;DHT22;9901;47.448;7.692;2023-02-12T08:01:39;3.90;99.90
19516;DHT22;9901;47.448;7.692;2023-02-12T08:04:07;3.80;99.90
19516;DHT22;9901;47.448;7.692;2023-02-12T08:06:35;3.90;99.90
19516;DHT22;9901;47.448;7.692;2023-02-12T08:09:03;3.90;99.90
19516;DHT22;9901;47.448;7.692;2023-02-12T08:11:30;3.90;99.90
19516;DHT22;9901;47.448;7.692;2023-02-12T08:13:56;4.00;99.90
19516;DHT22;9901;47.448;7.692;2023-02-12T08:16:23;4.00;99.90
19516;DHT22;9901;47.448;7.692;2023-02-12T08:18:50;4.10;99.90
19516;DHT22;9901;47.448;7.692;2023-02-12T08:21:22;4.10;99.90
19516;DHT22;9901;47.448;7.692;2023-02-12T08:23:48;4.10;99.90
19516;DHT22;9901;47.448;7.692;2023-02-12T08:26:24;4.20;99.90
19516;DHT22;9901;47.448;7.692;2023-02-12T08:29:05;4.30;99.90
19516;DHT22;9901;47.448;7.692;2023-02-12T08:31:36;4.30;99.90
19516;DHT22;9901;47.448;7.692;2023-02-12T08:34:03;4.30;99.90
19516;DHT22;9901;47.448;7.692;2023-02-12T08:36:46;4.30;99.90
19516;DHT22;9901;47.448;7.692;2023-02-12T08:39:12;4.40;99.90
19516;DHT22;9901;47.448;7.692;2023-02-12T08:41:38;4.40;99.90
19516;DHT22;9901;47.448;7.692;2023-02-12T08:44:04;4.60;99.90
19516;DHT22;9901;47.448;7.692;2023-02-12T08:46:35;4.50;99.90
19516;DHT22;9901;47.448;7.692;2023-02-12T08:49:06;4.60;99.90
19516;DHT22;9901;47.448;7.692;2023-02-12T08:51:34;4.70;99.90
19516;DHT22;9901;47.448;7.692;2023-02-12T08:54:03;4.80;99.90
19516;DHT22;9901;47.448;7.692;2023-02-12T08:56:40;4.80;99.90
19516;DHT22;9901;47.448;7.692;2023-02-12T08:59:07;4.90;99.90
19516;DHT22;9901;47.448;7.692;2023-02-12T09:04:55;5.10;99.90
19516;DHT22;9901;47.448;7.692;2023-02-12T09:07:20;5.20;99.90
19516;DHT22;9901;47.448;7.692;2023-02-12T09:30:43;6.60;99.90
19516;DHT22;9901;47.448;7.692;2023-02-12T09:33:19;7.00;99.90
19516;DHT22;9901;47.448;7.692;2023-02-12T09:35:47;7.30;99.90
19516;DHT22;9901;47.448;7.692;2023-02-12T09:38:13;7.70;99.90
19516;DHT22;9901;47.448;7.692;2023-02-12T09:41:19;7.70;99.90
19516;DHT22;9901;47.448;7.692;2023-02-12T09:44:14;8.00;99.90
19516;DHT22;9901;47.448;7.692;2023-02-12T09:47:05;8.20;99.90
19516;DHT22;9901;47.448;7.692;2023-02-12T09:53:24;9.60;99.90
19516;DHT22;9901;47.448;7.692;2023-02-12T09:56:17;9.70;99.90
19516;DHT22;9901;47.448;7.692;2023-02-12T10:00:27;10.20;99.90
19516;DHT22;9901;47.448;7.692;2023-02-12T10:02:38;10.70;99.90
19516;DHT22;9901;47.448;7.692;2023-02-12T10:05:15;11.10;99.90
19516;DHT22;9901;47.448;7.692;2023-02-12T10:25:05;12.00;99.90
19516;DHT22;9901;47.448;7.692;2023-02-12T10:27:44;12.20;99.90
19516;DHT22;9901;47.448;7.692;2023-02-12T10:30:26;12.30;99.90
19516;DHT22;9901;47.448;7.692;2023-02-12T10:33:01;12.50;99.90
19516;DHT22;9901;47.448;7.692;2023-02-12T10:35:27;12.60;99.90
19516;DHT22;9901;47.448;7.692;2023-02-12T10:37:57;12.80;99.90
19516;DHT22;9901;47.448;7.692;2023-02-12T10:40:29;12.70;99.90
19516;DHT22;9901;47.448;7.692;2023-02-12T10:42:57;13.00;99.90
19516;DHT22;9901;47.448;7.692;2023-02-12T10:45:35;13.10;99.90
19516;DHT22;9901;47.448;7.692;2023-02-12T10:48:13;13.10;99.90
19516;DHT22;9901;47.448;7.692;2023-02-12T10:53:41;13.00;99.90
19516;DHT22;9901;47.448;7.692;2023-02-12T10:58:55;13.10;99.90
19516;DHT22;9901;47.448;7.692;2023-02-12T11:01:34;13.00;99.90
19516;DHT22;9901;47.448;7.692;2023-02-12T11:04:20;13.30;99.90
19516;DHT22;9901;47.448;7.692;2023-02-12T11:07:06;13.40;99.90
19516;DHT22;9901;47.448;7.692;2023-02-12T11:09:38;13.40;99.90
19516;DHT22;9901;47.448;7.692;2023-02-12T11:12:30;13.60;99.90
19516;DHT22;9901;47.448;7.692;2023-02-12T11:15:12;13.70;99.90
19516;DHT22;9901;47.448;7.692;2023-02-12T11:17:41;13.70;99.90
19516;DHT22;9901;47.448;7.692;2023-02-12T11:22:58;13.70;99.90
19516;DHT22;9901;47.448;7.692;2023-02-12T11:25:28;14.00;99.90
19516;DHT22;9901;47.448;7.692;2023-02-12T11:28:17;14.10;99.90
19516;DHT22;9901;47.448;7.692;2023-02-12T11:36:06;14.30;99.90
19516;DHT22;9901;47.448;7.692;2023-02-12T11:41:31;14.30;99.90
19516;DHT22;9901;47.448;7.692;2023-02-12T11:44:16;14.50;99.90
19516;DHT22;9901;47.448;7.692;2023-02-12T11:47:09;14.00;99.90
19516;DHT22;9901;47.448;7.692;2023-02-12T11:49:42;13.90;99.90
19516;DHT22;9901;47.448;7.692;2023-02-12T11:52:23;14.00;99.90
19516;DHT22;9901;47.448;7.692;2023-02-12T11:54:54;14.20;99.90
19516;DHT22;9901;47.448;7.692;2023-02-12T11:57:43;14.20;99.90
19516;DHT22;9901;47.448;7.692;2023-02-12T12:00:33;14.00;99.90
19516;DHT22;9901;47.448;7.692;2023-02-12T12:03:19;14.20;99.90
19516;DHT22;9901;47.448;7.692;2023-02-12T12:06:02;14.30;99.90
19516;DHT22;9901;47.448;7.692;2023-02-12T12:08:43;14.30;99.90
19516;DHT22;9901;47.448;7.692;2023-02-12T12:11:18;14.60;99.90
19516;DHT22;9901;47.448;7.692;2023-02-12T12:13:51;14.50;99.90
19516;DHT22;9901;47.448;7.692;2023-02-12T12:16:41;14.40;99.90
19516;DHT22;9901;47.448;7.692;2023-02-12T12:20:02;14.20;99.90
19516;DHT22;9901;47.448;7.692;2023-02-12T12:23:08;14.30;99.90
19516;DHT22;9901;47.448;7.692;2023-02-12T12:25:50;14.50;99.90
19516;DHT22;9901;47.448;7.692;2023-02-12T12:28:31;14.40;99.90
19516;DHT22;9901;47.448;7.692;2023-02-12T12:31:13;14.30;99.90
19516;DHT22;9901;47.448;7.692;2023-02-12T12:33:55;14.30;99.90
19516;DHT22;9901;47.448;7.692;2023-02-12T12:42:11;14.20;99.90
19516;DHT22;9901;47.448;7.692;2023-02-12T12:50:08;14.20;99.90
19516;DHT22;9901;47.448;7.692;2023-02-12T12:59:02;14.50;99.90
19516;DHT22;9901;47.448;7.692;2023-02-12T13:04:20;14.80;99.90
19516;DHT22;9901;47.448;7.692;2023-02-12T13:10:09;14.80;99.90
19516;DHT22;9901;47.448;7.692;2023-02-12T13:12:44;14.60;99.90
19516;DHT22;9901;47.448;7.692;2023-02-12T13:18:19;14.50;99.90
19516;DHT22;9901;47.448;7.692;2023-02-12T13:23:47;14.80;99.90
19516;DHT22;9901;47.448;7.692;2023-02-12T13:28:53;14.90;99.90
19516;DHT22;9901;47.448;7.692;2023-02-12T13:31:21;15.00;99.90
19516;DHT22;9901;47.448;7.692;2023-02-12T13:33:50;15.20;99.90
19516;DHT22;9901;47.448;7.692;2023-02-12T13:36:16;15.30;99.90
19516;DHT22;9901;47.448;7.692;2023-02-12T13:38:55;15.60;99.90
19516;DHT22;9901;47.448;7.692;2023-02-12T13:41:24;15.50;99.90
19516;DHT22;9901;47.448;7.692;2023-02-12T13:44:14;15.60;99.90
19516;DHT22;9901;47.448;7.692;2023-02-12T13:46:59;15.90;99.90
19516;DHT22;9901;47.448;7.692;2023-02-12T13:49:47;16.20;99.90
19516;DHT22;9901;47.448;7.692;2023-02-12T13:57:48;17.10;99.90
19516;DHT22;9901;47.448;7.692;2023-02-12T14:00:59;17.60;99.90
19516;DHT22;9901;47.448;7.692;2023-02-12T14:03:26;18.80;99.90
19516;DHT22;9901;47.448;7.692;2023-02-12T14:06:16;19.40;99.90
19516;DHT22;9901;47.448;7.692;2023-02-12T14:08:46;18.80;99.90
19516;DHT22;9901;47.448;7.692;2023-02-12T14:11:18;18.80;99.90
19516;DHT22;9901;47.448;7.692;2023-02-12T14:16:42;20.70;99.90
19516;DHT22;9901;47.448;7.692;2023-02-12T14:20:32;22.10;99.90
19516;DHT22;9901;47.448;7.692;2023-02-12T14:35:40;25.60;99.90
19516;DHT22;9901;47.448;7.692;2023-02-12T14:43:34;24.50;99.90
19516;DHT22;9901;47.448;7.692;2023-02-12T14:54:03;23.80;99.90
19516;DHT22;9901;47.448;7.692;2023-02-12T14:56:43;23.90;99.90
19516;DHT22;9901;47.448;7.692;2023-02-12T14:59:15;21.50;99.90
19516;DHT22;9901;47.448;7.692;2023-02-12T15:01:42;19.60;99.90
19516;DHT22;9901;47.448;7.692;2023-02-12T15:04:23;18.30;99.90
19516;DHT22;9901;47.448;7.692;2023-02-12T15:09:36;16.20;99.90
19516;DHT22;9901;47.448;7.692;2023-02-12T15:12:16;15.40;99.90
19516;DHT22;9901;47.448;7.692;2023-02-12T15:14:49;14.70;99.90
19516;DHT22;9901;47.448;7.692;2023-02-12T15:17:24;14.50;99.90
19516;DHT22;9901;47.448;7.692;2023-02-12T15:20:03;14.10;99.90
19516;DHT22;9901;47.448;7.692;2023-02-12T15:22:36;13.80;99.90
19516;DHT22;9901;47.448;7.692;2023-02-12T15:25:30;13.80;99.90
19516;DHT22;9901;47.448;7.692;2023-02-12T15:28:26;13.60;99.90
19516;DHT22;9901;47.448;7.692;2023-02-12T15:30:55;13.50;99.90
19516;DHT22;9901;47.448;7.692;2023-02-12T15:33:33;13.30;99.90
19516;DHT22;9901;47.448;7.692;2023-02-12T15:36:02;13.20;99.90
19516;DHT22;9901;47.448;7.692;2023-02-12T15:38:32;13.00;99.90
19516;DHT22;9901;47.448;7.692;2023-02-12T15:41:06;12.90;99.90
19516;DHT22;9901;47.448;7.692;2023-02-12T15:43:55;12.90;99.90
19516;DHT22;9901;47.448;7.692;2023-02-12T15:46:25;12.80;99.90
19516;DHT22;9901;47.448;7.692;2023-02-12T15:49:20;12.80;99.90
19516;DHT22;9901;47.448;7.692;2023-02-12T15:51:49;12.60;99.90
19516;DHT22;9901;47.448;7.692;2023-02-12T15:54:27;12.50;99.90
19516;DHT22;9901;47.448;7.692;2023-02-12T15:56:54;12.30;99.90
19516;DHT22;9901;47.448;7.692;2023-02-12T15:59:32;12.00;99.90
19516;DHT22;9901;47.448;7.692;2023-02-12T16:09:07;11.40;99.90
19516;DHT22;9901;47.448;7.692;2023-02-12T16:11:44;11.30;99.90
19516;DHT22;9901;47.448;7.692;2023-02-12T16:14:36;11.20;99.90
19516;DHT22;9901;47.448;7.692;2023-02-12T16:17:28;11.20;99.90
19516;DHT22;9901;47.448;7.692;2023-02-12T16:20:20;11.10;99.90
19516;DHT22;9901;47.448;7.692;2023-02-12T16:22:53;10.90;99.90
19516;DHT22;9901;47.448;7.692;2023-02-12T16:25:30;10.70;99.90
19516;DHT22;9901;47.448;7.692;2023-02-12T16:28:12;10.50;99.90
19516;DHT22;9901;47.448;7.692;2023-02-12T16:58:19;9.00;99.90
19516;DHT22;9901;47.448;7.692;2023-02-12T17:00:51;8.90;99.90
19516;DHT22;9901;47.448;7.692;2023-02-12T17:06:16;8.80;99.90
19516;DHT22;9901;47.448;7.692;2023-02-12T17:08:51;8.70;99.90
19516;DHT22;9901;47.448;7.692;2023-02-12T17:11:17;8.70;99.90
19516;DHT22;9901;47.448;7.692;2023-02-12T17:13:44;8.60;99.90
19516;DHT22;9901;47.448;7.692;2023-02-12T17:16:10;8.50;99.90
19516;DHT22;9901;47.448;7.692;2023-02-12T17:18:36;8.40;99.90
19516;DHT22;9901;47.448;7.692;2023-02-12T17:21:06;8.30;99.90
19516;DHT22;9901;47.448;7.692;2023-02-12T17:23:35;8.30;99.90
19516;DHT22;9901;47.448;7.692;2023-02-12T17:26:01;8.20;99.90
19516;DHT22;9901;47.448;7.692;2023-02-12T17:28:29;8.10;99.90
19516;DHT22;9901;47.448;7.692;2023-02-12T17:31:16;8.00;99.90
19516;DHT22;9901;47.448;7.692;2023-02-12T17:33:42;7.80;99.90
19516;DHT22;9901;47.448;7.692;2023-02-12T17:36:10;7.80;99.90
19516;DHT22;9901;47.448;7.692;2023-02-12T17:38:36;7.70;99.90
19516;DHT22;9901;47.448;7.692;2023-02-12T17:41:06;7.60;99.90
19516;DHT22;9901;47.448;7.692;2023-02-12T17:43:32;7.40;99.90
19516;DHT22;9901;47.448;7.692;2023-02-12T17:46:23;7.20;99.90
19516;DHT22;9901;47.448;7.692;2023-02-12T17:48:52;7.20;99.90
19516;DHT22;9901;47.448;7.692;2023-02-12T17:51:20;7.20;99.90
19516;DHT22;9901;47.448;7.692;2023-02-12T17:53:46;7.30;99.90
19516;DHT22;9901;47.448;7.692;2023-02-12T17:56:15;7.30;99.90
19516;DHT22;9901;47.448;7.692;2023-02-12T17:58:42;7.20;99.90
19516;DHT22;9901;47.448;7.692;2023-02-12T18:01:10;7.10;99.90
19516;DHT22;9901;47.448;7.692;2023-02-12T18:03:36;7.00;99.90
19516;DHT22;9901;47.448;7.692;2023-02-12T18:06:02;7.00;99.90
19516;DHT22;9901;47.448;7.692;2023-02-12T18:08:29;6.90;99.90
19516;DHT22;9901;47.448;7.692;2023-02-12T18:55:29;6.00;99.90
19516;DHT22;9901;47.448;7.692;2023-02-12T18:57:54;5.80;99.90
19516;DHT22;9901;47.448;7.692;2023-02-12T19:00:20;5.70;99.90
19516;DHT22;9901;47.448;7.692;2023-02-12T19:02:46;5.60;99.90
19516;DHT22;9901;47.448;7.692;2023-02-12T19:05:11;5.60;99.90
19516;DHT22;9901;47.448;7.692;2023-02-12T19:07:43;5.70;99.90
19516;DHT22;9901;47.448;7.692;2023-02-12T19:10:16;5.80;99.90
19516;DHT22;9901;47.448;7.692;2023-02-12T19:13:08;5.80;99.90
19516;DHT22;9901;47.448;7.692;2023-02-12T19:15:37;5.80;99.90
19516;DHT22;9901;47.448;7.692;2023-02-12T19:18:10;5.70;99.90
19516;DHT22;9901;47.448;7.692;2023-02-12T19:20:41;5.70;99.90
19516;DHT22;9901;47.448;7.692;2023-02-12T19:23:07;5.60;99.90
19516;DHT22;9901;47.448;7.692;2023-02-12T19:25:36;5.60;99.90
19516;DHT22;9901;47.448;7.692;2023-02-12T19:28:09;5.50;99.90
19516;DHT22;9901;47.448;7.692;2023-02-12T19:30:36;5.50;99.90
19516;DHT22;9901;47.448;7.692;2023-02-12T19:33:05;5.60;99.90
19516;DHT22;9901;47.448;7.692;2023-02-12T19:35:30;5.50;99.90
19516;DHT22;9901;47.448;7.692;2023-02-12T19:37:56;5.40;99.90
19516;DHT22;9901;47.448;7.692;2023-02-12T19:40:22;5.50;99.90
19516;DHT22;9901;47.448;7.692;2023-02-12T19:42:47;5.50;99.90
19516;DHT22;9901;47.448;7.692;2023-02-12T19:45:13;5.40;99.90
19516;DHT22;9901;47.448;7.692;2023-02-12T19:47:41;5.40;99.90
19516;DHT22;9901;47.448;7.692;2023-02-12T19:50:07;5.50;99.90
19516;DHT22;9901;47.448;7.692;2023-02-12T19:52:43;5.40;99.90
19516;DHT22;9901;47.448;7.692;2023-02-12T19:55:08;5.40;99.90
19516;DHT22;9901;47.448;7.692;2023-02-12T19:57:34;5.40;99.90
19516;DHT22;9901;47.448;7.692;2023-02-12T20:00:11;5.30;99.90
19516;DHT22;9901;47.448;7.692;2023-02-12T20:02:37;5.30;99.90
19516;DHT22;9901;47.448;7.692;2023-02-12T20:05:11;5.30;99.90
19516;DHT22;9901;47.448;7.692;2023-02-12T20:07:37;5.20;99.90
19516;DHT22;9901;47.448;7.692;2023-02-12T20:10:04;5.20;99.90
19516;DHT22;9901;47.448;7.692;2023-02-12T20:12:29;5.10;99.90
19516;DHT22;9901;47.448;7.692;2023-02-12T20:14:55;5.00;99.90
19516;DHT22;9901;47.448;7.692;2023-02-12T20:17:21;5.00;99.90
19516;DHT22;9901;47.448;7.692;2023-02-12T20:19:49;4.90;99.90
19516;DHT22;9901;47.448;7.692;2023-02-12T20:22:27;4.80;99.90
19516;DHT22;9901;47.448;7.692;2023-02-12T20:24:55;4.70;99.90
19516;DHT22;9901;47.448;7.692;2023-02-12T20:27:21;4.70;99.90
19516;DHT22;9901;47.448;7.692;2023-02-12T20:29:47;4.70;99.90
19516;DHT22;9901;47.448;7.692;2023-02-12T20:32:12;4.60;99.90
19516;DHT22;9901;47.448;7.692;2023-02-12T20:35:03;4.60;99.90